sensor_id;sensor_type;location;lat;lon;timestamp;P1;durP1;ratioP1;P2;durP2;ratioP2
47625;SDS011;33342;45.574;9.252;2022-12-11T00:00:49;22.13;;;11.32;;
47625;SDS011;33342;45.574;9.252;2022-12-11T00:03:17;28.90;;;11.93;;
47625;SDS011;33342;45.574;9.252;2022-12-11T00:05:44;26.25;;;11.63;;
47625;SDS011;33342;45.574;9.252;2022-12-11T00:08:12;43.05;;;12.85;;
47625;SDS011;33342;45.574;9.252;2022-12-11T00:10:45;20.38;;;11.82;;
47625;SDS011;33342;45.574;9.252;2022-12-11T00:13:13;18.05;;;10.70;;
47625;SDS011;33342;45.574;9.252;2022-12-11T00:15:40;25.27;;;12.15;;
47625;SDS011;33342;45.574;9.252;2022-12-11T00:18:10;26.77;;;12.10;;
47625;SDS011;33342;45.574;9.252;2022-12-11T00:20:39;18.98;;;11.10;;
47625;SDS011;33342;45.574;9.252;2022-12-11T00:23:06;20.90;;;11.82;;
47625;SDS011;33342;45.574;9.252;2022-12-11T00:25:33;22.63;;;12.63;;
47625;SDS011;33342;45.574;9.252;2022-12-11T00:28:00;44.10;;;14.52;;
47625;SDS011;33342;45.574;9.252;2022-12-11T00:30:27;26.58;;;12.40;;
47625;SDS011;33342;45.574;9.252;2022-12-11T00:32:54;22.40;;;11.32;;
47625;SDS011;33342;45.574;9.252;2022-12-11T00:35:21;37.10;;;15.23;;
47625;SDS011;33342;45.574;9.252;2022-12-11T00:37:48;58.15;;;14.82;;
47625;SDS011;33342;45.574;9.252;2022-12-11T00:40:15;34.83;;;13.00;;
47625;SDS011;33342;45.574;9.252;2022-12-11T00:42:42;24.20;;;12.25;;
47625;SDS011;33342;45.574;9.252;2022-12-11T00:45:09;23.40;;;11.60;;
47625;SDS011;33342;45.574;9.252;2022-12-11T00:47:37;20.75;;;11.60;;
47625;SDS011;33342;45.574;9.252;2022-12-11T00:50:04;25.52;;;11.65;;
47625;SDS011;33342;45.574;9.252;2022-12-11T00:52:32;24.35;;;12.25;;
47625;SDS011;33342;45.574;9.252;2022-12-11T00:55:00;27.90;;;12.45;;
47625;SDS011;33342;45.574;9.252;2022-12-11T00:57:27;22.75;;;11.35;;
47625;SDS011;33342;45.574;9.252;2022-12-11T00:59:54;31.40;;;14.30;;
47625;SDS011;33342;45.574;9.252;2022-12-11T01:02:21;24.80;;;12.43;;
47625;SDS011;33342;45.574;9.252;2022-12-11T01:04:48;22.90;;;12.18;;
47625;SDS011;33342;45.574;9.252;2022-12-11T01:07:15;26.65;;;10.55;;
47625;SDS011;33342;45.574;9.252;2022-12-11T01:09:42;22.88;;;11.70;;
47625;SDS011;33342;45.574;9.252;2022-12-11T01:12:28;20.55;;;11.55;;
47625;SDS011;33342;45.574;9.252;2022-12-11T01:14:55;21.92;;;10.95;;
47625;SDS011;33342;45.574;9.252;2022-12-11T01:17:22;24.73;;;10.82;;
47625;SDS011;33342;45.574;9.252;2022-12-11T01:19:49;24.02;;;12.32;;
47625;SDS011;33342;45.574;9.252;2022-12-11T01:22:16;22.92;;;12.38;;
47625;SDS011;33342;45.574;9.252;2022-12-11T01:24:42;39.67;;;13.15;;
47625;SDS011;33342;45.574;9.252;2022-12-11T01:27:10;26.35;;;11.80;;
47625;SDS011;33342;45.574;9.252;2022-12-11T01:29:37;27.15;;;13.02;;
47625;SDS011;33342;45.574;9.252;2022-12-11T01:32:04;25.05;;;12.32;;
47625;SDS011;33342;45.574;9.252;2022-12-11T01:34:31;28.60;;;12.30;;
47625;SDS011;33342;45.574;9.252;2022-12-11T01:36:59;44.33;;;14.40;;
47625;SDS011;33342;45.574;9.252;2022-12-11T01:39:26;42.58;;;12.27;;
47625;SDS011;33342;45.574;9.252;2022-12-11T01:41:59;23.75;;;12.18;;
47625;SDS011;33342;45.574;9.252;2022-12-11T01:46:56;23.00;;;11.35;;
47625;SDS011;33342;45.574;9.252;2022-12-11T01:49:24;26.30;;;13.02;;
47625;SDS011;33342;45.574;9.252;2022-12-11T01:52:04;21.73;;;11.43;;
47625;SDS011;33342;45.574;9.252;2022-12-11T01:54:36;28.17;;;12.93;;
47625;SDS011;33342;45.574;9.252;2022-12-11T01:57:04;32.45;;;12.75;;
47625;SDS011;33342;45.574;9.252;2022-12-11T01:59:34;31.17;;;14.82;;
47625;SDS011;33342;45.574;9.252;2022-12-11T02:02:11;78.18;;;16.05;;
47625;SDS011;33342;45.574;9.252;2022-12-11T02:04:45;25.75;;;12.05;;
47625;SDS011;33342;45.574;9.252;2022-12-11T02:07:13;27.80;;;13.93;;
47625;SDS011;33342;45.574;9.252;2022-12-11T02:09:42;27.10;;;12.73;;
47625;SDS011;33342;45.574;9.252;2022-12-11T02:14:48;28.92;;;13.00;;
47625;SDS011;33342;45.574;9.252;2022-12-11T02:17:37;35.47;;;13.95;;
47625;SDS011;33342;45.574;9.252;2022-12-11T02:20:11;27.58;;;13.15;;
47625;SDS011;33342;45.574;9.252;2022-12-11T02:28:33;26.10;;;12.68;;
47625;SDS011;33342;45.574;9.252;2022-12-11T02:31:21;27.40;;;12.50;;
47625;SDS011;33342;45.574;9.252;2022-12-11T02:36:34;25.55;;;12.23;;
47625;SDS011;33342;45.574;9.252;2022-12-11T02:39:04;26.58;;;11.90;;
47625;SDS011;33342;45.574;9.252;2022-12-11T02:41:35;31.08;;;14.48;;
47625;SDS011;33342;45.574;9.252;2022-12-11T02:44:02;54.13;;;14.55;;
47625;SDS011;33342;45.574;9.252;2022-12-11T02:46:30;31.50;;;13.25;;
47625;SDS011;33342;45.574;9.252;2022-12-11T02:49:00;68.55;;;15.45;;
47625;SDS011;33342;45.574;9.252;2022-12-11T02:51:32;54.47;;;14.20;;
47625;SDS011;33342;45.574;9.252;2022-12-11T02:54:05;60.47;;;14.68;;
47625;SDS011;33342;45.574;9.252;2022-12-11T02:56:41;73.80;;;15.10;;
47625;SDS011;33342;45.574;9.252;2022-12-11T02:59:14;160.98;;;20.15;;
47625;SDS011;33342;45.574;9.252;2022-12-11T03:01:47;36.90;;;12.02;;
47625;SDS011;33342;45.574;9.252;2022-12-11T03:04:14;27.75;;;11.13;;
47625;SDS011;33342;45.574;9.252;2022-12-11T03:06:43;26.10;;;11.38;;
47625;SDS011;33342;45.574;9.252;2022-12-11T03:09:13;28.38;;;11.05;;
47625;SDS011;33342;45.574;9.252;2022-12-11T03:11:40;58.70;;;15.27;;
47625;SDS011;33342;45.574;9.252;2022-12-11T03:14:07;88.78;;;15.57;;
47625;SDS011;33342;45.574;9.252;2022-12-11T03:16:41;72.13;;;14.63;;
47625;SDS011;33342;45.574;9.252;2022-12-11T03:19:20;61.03;;;13.93;;
47625;SDS011;33342;45.574;9.252;2022-12-11T03:21:57;32.50;;;12.95;;
47625;SDS011;33342;45.574;9.252;2022-12-11T03:29:54;33.10;;;11.10;;
47625;SDS011;33342;45.574;9.252;2022-12-11T03:37:51;20.83;;;10.10;;
47625;SDS011;33342;45.574;9.252;2022-12-11T03:40:20;17.70;;;10.93;;
47625;SDS011;33342;45.574;9.252;2022-12-11T03:42:49;16.38;;;9.25;;
47625;SDS011;33342;45.574;9.252;2022-12-11T03:45:19;15.55;;;9.95;;
47625;SDS011;33342;45.574;9.252;2022-12-11T03:47:47;15.23;;;9.32;;
47625;SDS011;33342;45.574;9.252;2022-12-11T03:50:16;16.52;;;9.70;;
47625;SDS011;33342;45.574;9.252;2022-12-11T03:52:45;16.88;;;9.80;;
47625;SDS011;33342;45.574;9.252;2022-12-11T03:55:13;19.27;;;10.63;;
47625;SDS011;33342;45.574;9.252;2022-12-11T03:57:43;16.48;;;9.23;;
47625;SDS011;33342;45.574;9.252;2022-12-11T04:00:11;15.35;;;9.23;;
47625;SDS011;33342;45.574;9.252;2022-12-11T04:02:41;17.77;;;10.95;;
47625;SDS011;33342;45.574;9.252;2022-12-11T04:05:10;16.75;;;9.60;;
47625;SDS011;33342;45.574;9.252;2022-12-11T04:07:37;17.88;;;8.77;;
47625;SDS011;33342;45.574;9.252;2022-12-11T04:10:04;17.35;;;10.00;;
47625;SDS011;33342;45.574;9.252;2022-12-11T04:12:32;17.27;;;10.27;;
47625;SDS011;33342;45.574;9.252;2022-12-11T04:14:59;15.82;;;9.40;;
47625;SDS011;33342;45.574;9.252;2022-12-11T04:17:33;18.17;;;9.93;;
47625;SDS011;33342;45.574;9.252;2022-12-11T04:20:20;16.05;;;9.55;;
47625;SDS011;33342;45.574;9.252;2022-12-11T04:23:08;15.52;;;9.40;;
47625;SDS011;33342;45.574;9.252;2022-12-11T04:26:08;14.35;;;9.48;;
47625;SDS011;33342;45.574;9.252;2022-12-11T04:28:40;13.73;;;8.60;;
47625;SDS011;33342;45.574;9.252;2022-12-11T04:31:11;15.07;;;8.52;;
47625;SDS011;33342;45.574;9.252;2022-12-11T04:33:40;14.60;;;8.73;;
47625;SDS011;33342;45.574;9.252;2022-12-11T04:36:07;13.23;;;8.10;;
47625;SDS011;33342;45.574;9.252;2022-12-11T04:38:35;13.02;;;8.73;;
47625;SDS011;33342;45.574;9.252;2022-12-11T04:41:06;12.38;;;7.85;;
47625;SDS011;33342;45.574;9.252;2022-12-11T04:43:35;12.82;;;7.68;;
47625;SDS011;33342;45.574;9.252;2022-12-11T04:46:07;11.63;;;7.47;;
47625;SDS011;33342;45.574;9.252;2022-12-11T04:48:36;11.82;;;7.15;;
47625;SDS011;33342;45.574;9.252;2022-12-11T04:51:05;9.95;;;6.80;;
47625;SDS011;33342;45.574;9.252;2022-12-11T04:53:32;11.48;;;6.45;;
47625;SDS011;33342;45.574;9.252;2022-12-11T04:56:00;9.75;;;5.88;;
47625;SDS011;33342;45.574;9.252;2022-12-11T04:58:30;11.52;;;6.53;;
47625;SDS011;33342;45.574;9.252;2022-12-11T05:00:57;10.35;;;6.25;;
47625;SDS011;33342;45.574;9.252;2022-12-11T05:03:24;11.57;;;6.40;;
47625;SDS011;33342;45.574;9.252;2022-12-11T05:05:51;11.57;;;7.18;;
47625;SDS011;33342;45.574;9.252;2022-12-11T05:08:19;10.68;;;6.90;;
47625;SDS011;33342;45.574;9.252;2022-12-11T05:10:57;11.27;;;7.00;;
47625;SDS011;33342;45.574;9.252;2022-12-11T05:13:26;12.60;;;6.50;;
47625;SDS011;33342;45.574;9.252;2022-12-11T05:15:53;7.38;;;4.13;;
47625;SDS011;33342;45.574;9.252;2022-12-11T05:18:21;8.75;;;5.45;;
47625;SDS011;33342;45.574;9.252;2022-12-11T05:20:58;9.45;;;5.15;;
47625;SDS011;33342;45.574;9.252;2022-12-11T05:23:27;9.93;;;5.97;;
47625;SDS011;33342;45.574;9.252;2022-12-11T05:25:55;9.30;;;5.40;;
47625;SDS011;33342;45.574;9.252;2022-12-11T05:28:25;8.45;;;4.72;;
47625;SDS011;33342;45.574;9.252;2022-12-11T05:30:54;7.85;;;4.68;;
47625;SDS011;33342;45.574;9.252;2022-12-11T05:33:23;8.65;;;4.60;;
47625;SDS011;33342;45.574;9.252;2022-12-11T05:35:51;8.90;;;5.07;;
47625;SDS011;33342;45.574;9.252;2022-12-11T05:38:19;7.50;;;3.92;;
47625;SDS011;33342;45.574;9.252;2022-12-11T05:43:30;9.15;;;5.05;;
47625;SDS011;33342;45.574;9.252;2022-12-11T05:46:09;8.27;;;4.63;;
47625;SDS011;33342;45.574;9.252;2022-12-11T05:48:48;9.07;;;4.72;;
47625;SDS011;33342;45.574;9.252;2022-12-11T05:51:17;9.15;;;5.68;;
47625;SDS011;33342;45.574;9.252;2022-12-11T05:53:45;9.07;;;5.60;;
47625;SDS011;33342;45.574;9.252;2022-12-11T05:56:14;9.70;;;5.90;;
47625;SDS011;33342;45.574;9.252;2022-12-11T05:58:45;10.05;;;6.15;;
47625;SDS011;33342;45.574;9.252;2022-12-11T06:01:14;12.90;;;7.05;;
47625;SDS011;33342;45.574;9.252;2022-12-11T06:03:43;10.90;;;6.95;;
47625;SDS011;33342;45.574;9.252;2022-12-11T06:06:10;12.18;;;6.95;;
47625;SDS011;33342;45.574;9.252;2022-12-11T06:08:38;11.38;;;7.40;;
47625;SDS011;33342;45.574;9.252;2022-12-11T06:11:05;12.73;;;7.82;;
47625;SDS011;33342;45.574;9.252;2022-12-11T06:13:33;12.00;;;7.90;;
47625;SDS011;33342;45.574;9.252;2022-12-11T06:16:01;11.80;;;7.32;;
47625;SDS011;33342;45.574;9.252;2022-12-11T06:18:30;11.23;;;6.75;;
47625;SDS011;33342;45.574;9.252;2022-12-11T06:21:00;9.98;;;6.95;;
47625;SDS011;33342;45.574;9.252;2022-12-11T06:23:27;10.77;;;7.00;;
47625;SDS011;33342;45.574;9.252;2022-12-11T06:25:54;11.60;;;6.25;;
47625;SDS011;33342;45.574;9.252;2022-12-11T06:28:21;10.23;;;5.65;;
47625;SDS011;33342;45.574;9.252;2022-12-11T06:30:48;11.68;;;6.53;;
47625;SDS011;33342;45.574;9.252;2022-12-11T06:33:15;9.55;;;5.38;;
47625;SDS011;33342;45.574;9.252;2022-12-11T06:35:42;10.63;;;5.82;;
47625;SDS011;33342;45.574;9.252;2022-12-11T06:38:09;9.50;;;5.45;;
47625;SDS011;33342;45.574;9.252;2022-12-11T06:40:36;9.82;;;5.22;;
47625;SDS011;33342;45.574;9.252;2022-12-11T06:43:03;12.45;;;6.53;;
47625;SDS011;33342;45.574;9.252;2022-12-11T06:45:30;9.68;;;5.47;;
47625;SDS011;33342;45.574;9.252;2022-12-11T06:47:57;7.78;;;5.30;;
47625;SDS011;33342;45.574;9.252;2022-12-11T06:50:25;8.60;;;4.70;;
47625;SDS011;33342;45.574;9.252;2022-12-11T06:52:52;10.05;;;5.57;;
47625;SDS011;33342;45.574;9.252;2022-12-11T06:55:19;8.50;;;4.82;;
47625;SDS011;33342;45.574;9.252;2022-12-11T06:57:46;8.95;;;5.38;;
47625;SDS011;33342;45.574;9.252;2022-12-11T07:00:13;9.43;;;5.38;;
47625;SDS011;33342;45.574;9.252;2022-12-11T07:02:41;10.70;;;6.07;;
47625;SDS011;33342;45.574;9.252;2022-12-11T07:05:08;9.40;;;5.65;;
47625;SDS011;33342;45.574;9.252;2022-12-11T07:07:35;9.32;;;5.72;;
47625;SDS011;33342;45.574;9.252;2022-12-11T07:10:02;9.40;;;5.93;;
47625;SDS011;33342;45.574;9.252;2022-12-11T07:12:36;10.95;;;6.00;;
47625;SDS011;33342;45.574;9.252;2022-12-11T07:15:03;8.85;;;5.32;;
47625;SDS011;33342;45.574;9.252;2022-12-11T07:17:31;9.25;;;4.60;;
47625;SDS011;33342;45.574;9.252;2022-12-11T07:19:58;8.90;;;5.10;;
47625;SDS011;33342;45.574;9.252;2022-12-11T07:22:25;8.63;;;5.75;;
47625;SDS011;33342;45.574;9.252;2022-12-11T07:24:53;9.45;;;5.70;;
47625;SDS011;33342;45.574;9.252;2022-12-11T07:27:20;8.93;;;5.03;;
47625;SDS011;33342;45.574;9.252;2022-12-11T07:29:49;10.25;;;5.70;;
47625;SDS011;33342;45.574;9.252;2022-12-11T07:32:16;9.07;;;5.63;;
47625;SDS011;33342;45.574;9.252;2022-12-11T07:34:43;9.30;;;5.38;;
47625;SDS011;33342;45.574;9.252;2022-12-11T07:37:17;10.10;;;5.07;;
47625;SDS011;33342;45.574;9.252;2022-12-11T07:39:44;9.60;;;5.68;;
47625;SDS011;33342;45.574;9.252;2022-12-11T07:42:11;9.35;;;5.65;;
47625;SDS011;33342;45.574;9.252;2022-12-11T07:44:38;8.88;;;5.43;;
47625;SDS011;33342;45.574;9.252;2022-12-11T07:47:05;7.88;;;4.70;;
47625;SDS011;33342;45.574;9.252;2022-12-11T07:49:31;9.95;;;5.20;;
47625;SDS011;33342;45.574;9.252;2022-12-11T07:51:59;9.60;;;4.60;;
47625;SDS011;33342;45.574;9.252;2022-12-11T07:54:26;12.32;;;5.38;;
47625;SDS011;33342;45.574;9.252;2022-12-11T07:56:53;9.38;;;5.20;;
47625;SDS011;33342;45.574;9.252;2022-12-11T07:59:20;9.77;;;5.93;;
47625;SDS011;33342;45.574;9.252;2022-12-11T08:01:47;10.90;;;5.70;;
47625;SDS011;33342;45.574;9.252;2022-12-11T08:04:14;9.95;;;6.00;;
47625;SDS011;33342;45.574;9.252;2022-12-11T08:06:41;10.23;;;5.82;;
47625;SDS011;33342;45.574;9.252;2022-12-11T08:09:10;9.45;;;5.55;;
47625;SDS011;33342;45.574;9.252;2022-12-11T08:11:47;8.98;;;5.55;;
47625;SDS011;33342;45.574;9.252;2022-12-11T08:14:16;9.57;;;5.10;;
47625;SDS011;33342;45.574;9.252;2022-12-11T08:16:43;10.15;;;5.30;;
47625;SDS011;33342;45.574;9.252;2022-12-11T08:19:11;11.00;;;6.30;;
47625;SDS011;33342;45.574;9.252;2022-12-11T08:21:38;9.52;;;5.55;;
47625;SDS011;33342;45.574;9.252;2022-12-11T08:24:06;10.13;;;5.18;;
47625;SDS011;33342;45.574;9.252;2022-12-11T08:26:34;11.13;;;6.47;;
47625;SDS011;33342;45.574;9.252;2022-12-11T08:29:02;10.10;;;5.97;;
47625;SDS011;33342;45.574;9.252;2022-12-11T08:31:31;13.50;;;7.85;;
47625;SDS011;33342;45.574;9.252;2022-12-11T08:33:58;12.68;;;7.20;;
47625;SDS011;33342;45.574;9.252;2022-12-11T08:36:26;11.32;;;7.22;;
47625;SDS011;33342;45.574;9.252;2022-12-11T08:38:53;14.05;;;7.38;;
47625;SDS011;33342;45.574;9.252;2022-12-11T08:41:22;13.43;;;7.45;;
47625;SDS011;33342;45.574;9.252;2022-12-11T08:43:51;12.32;;;7.38;;
47625;SDS011;33342;45.574;9.252;2022-12-11T08:46:22;15.00;;;7.90;;
47625;SDS011;33342;45.574;9.252;2022-12-11T08:48:51;15.82;;;7.93;;
47625;SDS011;33342;45.574;9.252;2022-12-11T08:51:20;12.95;;;7.43;;
47625;SDS011;33342;45.574;9.252;2022-12-11T08:53:49;14.32;;;7.70;;
47625;SDS011;33342;45.574;9.252;2022-12-11T08:56:19;13.18;;;7.53;;
47625;SDS011;33342;45.574;9.252;2022-12-11T08:58:49;13.73;;;7.65;;
47625;SDS011;33342;45.574;9.252;2022-12-11T09:01:18;16.02;;;7.45;;
47625;SDS011;33342;45.574;9.252;2022-12-11T09:03:47;13.10;;;7.40;;
47625;SDS011;33342;45.574;9.252;2022-12-11T09:06:16;14.40;;;8.35;;
47625;SDS011;33342;45.574;9.252;2022-12-11T09:08:45;16.10;;;9.60;;
47625;SDS011;33342;45.574;9.252;2022-12-11T09:11:22;15.60;;;9.45;;
47625;SDS011;33342;45.574;9.252;2022-12-11T09:13:51;13.70;;;7.82;;
47625;SDS011;33342;45.574;9.252;2022-12-11T09:16:20;13.50;;;7.50;;
47625;SDS011;33342;45.574;9.252;2022-12-11T09:18:49;15.48;;;8.60;;
47625;SDS011;33342;45.574;9.252;2022-12-11T09:21:19;12.30;;;8.10;;
47625;SDS011;33342;45.574;9.252;2022-12-11T09:23:48;13.23;;;7.95;;
47625;SDS011;33342;45.574;9.252;2022-12-11T09:26:17;12.63;;;7.97;;
47625;SDS011;33342;45.574;9.252;2022-12-11T09:28:45;14.30;;;7.45;;
47625;SDS011;33342;45.574;9.252;2022-12-11T09:31:14;15.15;;;7.75;;
47625;SDS011;33342;45.574;9.252;2022-12-11T09:33:53;13.68;;;7.82;;
47625;SDS011;33342;45.574;9.252;2022-12-11T09:36:22;13.10;;;7.47;;
47625;SDS011;33342;45.574;9.252;2022-12-11T09:38:49;18.58;;;10.10;;
47625;SDS011;33342;45.574;9.252;2022-12-11T09:43:58;15.05;;;7.47;;
47625;SDS011;33342;45.574;9.252;2022-12-11T09:46:30;12.25;;;6.20;;
47625;SDS011;33342;45.574;9.252;2022-12-11T09:49:00;9.75;;;5.15;;
47625;SDS011;33342;45.574;9.252;2022-12-11T10:17:24;16.38;;;7.88;;
47625;SDS011;33342;45.574;9.252;2022-12-11T10:19:56;13.43;;;8.38;;
47625;SDS011;33342;45.574;9.252;2022-12-11T10:22:29;15.48;;;9.10;;
47625;SDS011;33342;45.574;9.252;2022-12-11T10:27:39;19.45;;;9.38;;
47625;SDS011;33342;45.574;9.252;2022-12-11T10:30:12;17.15;;;9.50;;
47625;SDS011;33342;45.574;9.252;2022-12-11T10:37:58;18.27;;;9.68;;
47625;SDS011;33342;45.574;9.252;2022-12-11T10:40:37;17.73;;;9.32;;
47625;SDS011;33342;45.574;9.252;2022-12-11T10:43:05;19.52;;;9.30;;
47625;SDS011;33342;45.574;9.252;2022-12-11T10:45:32;17.00;;;9.45;;
47625;SDS011;33342;45.574;9.252;2022-12-11T10:48:08;14.00;;;8.13;;
47625;SDS011;33342;45.574;9.252;2022-12-11T10:50:36;14.65;;;8.40;;
47625;SDS011;33342;45.574;9.252;2022-12-11T10:53:04;19.35;;;9.13;;
47625;SDS011;33342;45.574;9.252;2022-12-11T10:55:42;16.35;;;8.60;;
47625;SDS011;33342;45.574;9.252;2022-12-11T10:58:12;14.43;;;8.45;;
47625;SDS011;33342;45.574;9.252;2022-12-11T11:00:43;17.65;;;8.38;;
47625;SDS011;33342;45.574;9.252;2022-12-11T11:03:19;15.70;;;8.60;;
47625;SDS011;33342;45.574;9.252;2022-12-11T11:06:05;18.35;;;8.57;;
47625;SDS011;33342;45.574;9.252;2022-12-11T11:08:44;14.02;;;7.70;;
47625;SDS011;33342;45.574;9.252;2022-12-11T11:11:20;13.82;;;8.43;;
47625;SDS011;33342;45.574;9.252;2022-12-11T11:13:50;15.88;;;8.20;;
47625;SDS011;33342;45.574;9.252;2022-12-11T11:16:19;14.43;;;8.55;;
47625;SDS011;33342;45.574;9.252;2022-12-11T11:18:49;13.52;;;8.45;;
47625;SDS011;33342;45.574;9.252;2022-12-11T11:21:20;14.07;;;8.18;;
47625;SDS011;33342;45.574;9.252;2022-12-11T11:23:50;15.65;;;9.40;;
47625;SDS011;33342;45.574;9.252;2022-12-11T11:26:19;14.68;;;8.48;;
47625;SDS011;33342;45.574;9.252;2022-12-11T11:28:50;15.55;;;8.90;;
47625;SDS011;33342;45.574;9.252;2022-12-11T11:31:20;14.00;;;7.93;;
47625;SDS011;33342;45.574;9.252;2022-12-11T11:33:57;13.32;;;8.05;;
47625;SDS011;33342;45.574;9.252;2022-12-11T11:36:30;12.95;;;7.20;;
47625;SDS011;33342;45.574;9.252;2022-12-11T11:39:05;13.32;;;8.00;;
47625;SDS011;33342;45.574;9.252;2022-12-11T11:41:36;12.35;;;7.30;;
47625;SDS011;33342;45.574;9.252;2022-12-11T11:44:13;14.85;;;7.95;;
47625;SDS011;33342;45.574;9.252;2022-12-11T11:46:46;12.32;;;7.53;;
47625;SDS011;33342;45.574;9.252;2022-12-11T11:49:43;13.50;;;6.90;;
47625;SDS011;33342;45.574;9.252;2022-12-11T11:52:16;11.30;;;6.63;;
47625;SDS011;33342;45.574;9.252;2022-12-11T11:55:02;12.25;;;8.15;;
47625;SDS011;33342;45.574;9.252;2022-12-11T12:00:21;12.88;;;7.25;;
47625;SDS011;33342;45.574;9.252;2022-12-11T12:03:00;14.27;;;7.90;;
47625;SDS011;33342;45.574;9.252;2022-12-11T12:05:36;12.60;;;6.93;;
47625;SDS011;33342;45.574;9.252;2022-12-11T12:20:26;14.05;;;8.52;;
47625;SDS011;33342;45.574;9.252;2022-12-11T12:23:11;12.45;;;6.90;;
47625;SDS011;33342;45.574;9.252;2022-12-11T12:26:05;11.40;;;7.57;;
47625;SDS011;33342;45.574;9.252;2022-12-11T12:31:45;11.98;;;7.22;;
47625;SDS011;33342;45.574;9.252;2022-12-11T12:34:39;13.52;;;7.95;;
47625;SDS011;33342;45.574;9.252;2022-12-11T12:37:21;12.32;;;7.65;;
47625;SDS011;33342;45.574;9.252;2022-12-11T12:48:31;14.07;;;7.47;;
47625;SDS011;33342;45.574;9.252;2022-12-11T12:50:58;13.05;;;7.28;;
47625;SDS011;33342;45.574;9.252;2022-12-11T12:53:26;14.95;;;7.50;;
47625;SDS011;33342;45.574;9.252;2022-12-11T12:55:57;12.75;;;7.03;;
47625;SDS011;33342;45.574;9.252;2022-12-11T12:58:28;14.23;;;7.20;;
47625;SDS011;33342;45.574;9.252;2022-12-11T13:01:07;12.52;;;7.25;;
47625;SDS011;33342;45.574;9.252;2022-12-11T13:06:27;13.10;;;6.83;;
47625;SDS011;33342;45.574;9.252;2022-12-11T13:11:47;13.63;;;6.88;;
47625;SDS011;33342;45.574;9.252;2022-12-11T13:16:49;10.65;;;6.07;;
47625;SDS011;33342;45.574;9.252;2022-12-11T13:24:24;8.77;;;5.43;;
47625;SDS011;33342;45.574;9.252;2022-12-11T13:26:53;92.38;;;40.40;;
47625;SDS011;33342;45.574;9.252;2022-12-11T13:29:31;31.65;;;17.10;;
47625;SDS011;33342;45.574;9.252;2022-12-11T13:34:36;10.02;;;5.72;;
47625;SDS011;33342;45.574;9.252;2022-12-11T13:37:06;10.63;;;6.13;;
47625;SDS011;33342;45.574;9.252;2022-12-11T13:39:51;8.73;;;5.13;;
47625;SDS011;33342;45.574;9.252;2022-12-11T13:42:46;9.70;;;5.22;;
47625;SDS011;33342;45.574;9.252;2022-12-11T13:48:00;8.20;;;4.82;;
47625;SDS011;33342;45.574;9.252;2022-12-11T13:50:28;9.52;;;5.07;;
47625;SDS011;33342;45.574;9.252;2022-12-11T13:52:58;9.02;;;5.07;;
47625;SDS011;33342;45.574;9.252;2022-12-11T13:55:31;10.05;;;5.10;;
47625;SDS011;33342;45.574;9.252;2022-12-11T13:58:00;9.68;;;5.70;;
47625;SDS011;33342;45.574;9.252;2022-12-11T14:00:28;7.50;;;4.65;;
47625;SDS011;33342;45.574;9.252;2022-12-11T14:02:59;9.88;;;4.95;;
47625;SDS011;33342;45.574;9.252;2022-12-11T14:05:32;7.60;;;4.68;;
47625;SDS011;33342;45.574;9.252;2022-12-11T14:08:02;8.07;;;4.55;;
47625;SDS011;33342;45.574;9.252;2022-12-11T14:10:35;7.97;;;4.70;;
47625;SDS011;33342;45.574;9.252;2022-12-11T14:13:04;8.80;;;5.18;;
47625;SDS011;33342;45.574;9.252;2022-12-11T14:15:36;7.55;;;4.43;;
47625;SDS011;33342;45.574;9.252;2022-12-11T14:18:13;7.90;;;4.50;;
47625;SDS011;33342;45.574;9.252;2022-12-11T14:20:45;8.70;;;5.05;;
47625;SDS011;33342;45.574;9.252;2022-12-11T14:23:21;8.98;;;5.30;;
47625;SDS011;33342;45.574;9.252;2022-12-11T14:25:51;10.23;;;4.85;;
47625;SDS011;33342;45.574;9.252;2022-12-11T14:28:18;12.88;;;5.47;;
47625;SDS011;33342;45.574;9.252;2022-12-11T14:30:48;8.32;;;4.78;;
47625;SDS011;33342;45.574;9.252;2022-12-11T14:33:18;8.95;;;4.97;;
47625;SDS011;33342;45.574;9.252;2022-12-11T14:35:48;9.38;;;4.95;;
47625;SDS011;33342;45.574;9.252;2022-12-11T14:38:18;7.70;;;4.75;;
47625;SDS011;33342;45.574;9.252;2022-12-11T14:41:12;8.57;;;5.07;;
47625;SDS011;33342;45.574;9.252;2022-12-11T14:43:50;10.27;;;5.30;;
47625;SDS011;33342;45.574;9.252;2022-12-11T14:46:35;9.50;;;5.30;;
47625;SDS011;33342;45.574;9.252;2022-12-11T14:51:49;16.27;;;8.27;;
47625;SDS011;33342;45.574;9.252;2022-12-11T14:54:26;10.52;;;6.40;;
47625;SDS011;33342;45.574;9.252;2022-12-11T14:56:58;8.98;;;5.15;;
47625;SDS011;33342;45.574;9.252;2022-12-11T14:59:27;9.05;;;5.20;;
47625;SDS011;33342;45.574;9.252;2022-12-11T15:02:02;7.70;;;4.60;;
47625;SDS011;33342;45.574;9.252;2022-12-11T15:07:40;8.38;;;4.35;;
47625;SDS011;33342;45.574;9.252;2022-12-11T15:10:21;8.50;;;4.53;;
47625;SDS011;33342;45.574;9.252;2022-12-11T15:13:08;7.75;;;4.50;;
47625;SDS011;33342;45.574;9.252;2022-12-11T15:15:45;8.65;;;4.20;;
47625;SDS011;33342;45.574;9.252;2022-12-11T15:18:22;7.95;;;4.28;;
47625;SDS011;33342;45.574;9.252;2022-12-11T15:20:51;23.42;;;12.63;;
47625;SDS011;33342;45.574;9.252;2022-12-11T15:23:21;8.48;;;4.82;;
47625;SDS011;33342;45.574;9.252;2022-12-11T15:25:49;10.00;;;4.82;;
47625;SDS011;33342;45.574;9.252;2022-12-11T15:28:22;8.32;;;4.82;;
47625;SDS011;33342;45.574;9.252;2022-12-11T15:30:57;7.97;;;4.68;;
47625;SDS011;33342;45.574;9.252;2022-12-11T15:33:26;7.40;;;4.13;;
47625;SDS011;33342;45.574;9.252;2022-12-11T15:38:33;9.45;;;4.65;;
47625;SDS011;33342;45.574;9.252;2022-12-11T15:43:39;8.40;;;4.18;;
47625;SDS011;33342;45.574;9.252;2022-12-11T15:46:06;8.23;;;4.32;;
47625;SDS011;33342;45.574;9.252;2022-12-11T15:48:33;8.15;;;4.90;;
47625;SDS011;33342;45.574;9.252;2022-12-11T15:51:00;8.05;;;4.72;;
47625;SDS011;33342;45.574;9.252;2022-12-11T15:53:29;8.88;;;4.90;;
47625;SDS011;33342;45.574;9.252;2022-12-11T15:55:56;7.78;;;4.57;;
47625;SDS011;33342;45.574;9.252;2022-12-11T15:58:25;10.32;;;5.05;;
47625;SDS011;33342;45.574;9.252;2022-12-11T16:00:53;9.63;;;4.25;;
47625;SDS011;33342;45.574;9.252;2022-12-11T16:03:21;8.07;;;4.00;;
47625;SDS011;33342;45.574;9.252;2022-12-11T16:05:49;7.78;;;4.22;;
47625;SDS011;33342;45.574;9.252;2022-12-11T16:08:19;10.55;;;5.05;;
47625;SDS011;33342;45.574;9.252;2022-12-11T16:10:48;8.73;;;4.75;;
47625;SDS011;33342;45.574;9.252;2022-12-11T16:13:16;9.90;;;4.32;;
47625;SDS011;33342;45.574;9.252;2022-12-11T16:15:44;8.80;;;4.70;;
47625;SDS011;33342;45.574;9.252;2022-12-11T16:18:17;8.63;;;4.32;;
47625;SDS011;33342;45.574;9.252;2022-12-11T16:20:47;8.13;;;4.53;;
47625;SDS011;33342;45.574;9.252;2022-12-11T16:23:15;9.23;;;4.15;;
47625;SDS011;33342;45.574;9.252;2022-12-11T16:25:43;10.73;;;4.60;;
47625;SDS011;33342;45.574;9.252;2022-12-11T16:28:12;9.60;;;5.03;;
47625;SDS011;33342;45.574;9.252;2022-12-11T16:30:40;7.82;;;4.57;;
47625;SDS011;33342;45.574;9.252;2022-12-11T16:33:09;7.90;;;4.45;;
47625;SDS011;33342;45.574;9.252;2022-12-11T16:35:39;7.93;;;4.63;;
47625;SDS011;33342;45.574;9.252;2022-12-11T16:38:07;8.93;;;4.68;;
47625;SDS011;33342;45.574;9.252;2022-12-11T16:40:35;10.38;;;5.45;;
47625;SDS011;33342;45.574;9.252;2022-12-11T16:43:03;8.80;;;5.10;;
47625;SDS011;33342;45.574;9.252;2022-12-11T16:45:31;9.23;;;5.18;;
47625;SDS011;33342;45.574;9.252;2022-12-11T16:48:01;11.88;;;5.30;;
47625;SDS011;33342;45.574;9.252;2022-12-11T16:50:29;8.60;;;4.93;;
47625;SDS011;33342;45.574;9.252;2022-12-11T16:52:57;8.05;;;5.07;;
47625;SDS011;33342;45.574;9.252;2022-12-11T16:55:24;8.15;;;5.15;;